sensor_id;sensor_type;location;lat;lon;timestamp;P1;durP1;ratioP1;P2;durP2;ratioP2
5085;SDS011;4715;51.660;7.082;2023-04-23T00:00:30;25.47;;;18.00;;
5085;SDS011;4715;51.660;7.082;2023-04-23T00:02:53;27.63;;;17.87;;
5085;SDS011;4715;51.660;7.082;2023-04-23T00:05:17;25.40;;;16.60;;
5085;SDS011;4715;51.660;7.082;2023-04-23T00:07:41;24.53;;;16.90;;
5085;SDS011;4715;51.660;7.082;2023-04-23T00:10:03;22.00;;;15.60;;
5085;SDS011;4715;51.660;7.082;2023-04-23T00:12:28;21.60;;;15.40;;
5085;SDS011;4715;51.660;7.082;2023-04-23T00:14:50;24.50;;;15.33;;
5085;SDS011;4715;51.660;7.082;2023-04-23T00:17:14;21.67;;;14.17;;
5085;SDS011;4715;51.660;7.082;2023-04-23T00:19:36;26.13;;;15.77;;
5085;SDS011;4715;51.660;7.082;2023-04-23T00:21:58;21.07;;;15.00;;
5085;SDS011;4715;51.660;7.082;2023-04-23T00:24:20;25.03;;;15.93;;
5085;SDS011;4715;51.660;7.082;2023-04-23T00:26:41;23.77;;;17.23;;
5085;SDS011;4715;51.660;7.082;2023-04-23T00:29:05;29.70;;;18.97;;
5085;SDS011;4715;51.660;7.082;2023-04-23T00:31:32;28.07;;;18.47;;
5085;SDS011;4715;51.660;7.082;2023-04-23T00:33:55;29.17;;;19.10;;
5085;SDS011;4715;51.660;7.082;2023-04-23T00:36:17;36.37;;;21.33;;
5085;SDS011;4715;51.660;7.082;2023-04-23T00:38:39;31.73;;;20.67;;
5085;SDS011;4715;51.660;7.082;2023-04-23T00:41:05;33.97;;;20.53;;
5085;SDS011;4715;51.660;7.082;2023-04-23T00:43:29;28.27;;;19.50;;
5085;SDS011;4715;51.660;7.082;2023-04-23T00:45:52;33.70;;;19.93;;
5085;SDS011;4715;51.660;7.082;2023-04-23T00:48:14;31.47;;;21.40;;
5085;SDS011;4715;51.660;7.082;2023-04-23T00:50:38;31.93;;;21.60;;
5085;SDS011;4715;51.660;7.082;2023-04-23T00:53:01;37.30;;;22.70;;
5085;SDS011;4715;51.660;7.082;2023-04-23T00:55:23;34.17;;;21.93;;
5085;SDS011;4715;51.660;7.082;2023-04-23T00:57:45;35.00;;;21.63;;
5085;SDS011;4715;51.660;7.082;2023-04-23T01:00:08;35.00;;;22.30;;
5085;SDS011;4715;51.660;7.082;2023-04-23T01:02:33;38.63;;;22.83;;
5085;SDS011;4715;51.660;7.082;2023-04-23T01:04:57;36.60;;;22.43;;
5085;SDS011;4715;51.660;7.082;2023-04-23T01:07:23;41.43;;;24.37;;
5085;SDS011;4715;51.660;7.082;2023-04-23T01:09:45;42.20;;;23.63;;
5085;SDS011;4715;51.660;7.082;2023-04-23T01:12:07;38.73;;;23.00;;
5085;SDS011;4715;51.660;7.082;2023-04-23T01:14:30;30.63;;;20.67;;
5085;SDS011;4715;51.660;7.082;2023-04-23T01:16:52;34.43;;;21.43;;
5085;SDS011;4715;51.660;7.082;2023-04-23T01:19:15;35.77;;;21.67;;
5085;SDS011;4715;51.660;7.082;2023-04-23T01:21:37;30.63;;;21.03;;
5085;SDS011;4715;51.660;7.082;2023-04-23T01:24:02;31.73;;;19.67;;
5085;SDS011;4715;51.660;7.082;2023-04-23T01:26:24;33.87;;;19.60;;
5085;SDS011;4715;51.660;7.082;2023-04-23T01:28:46;28.57;;;18.07;;
5085;SDS011;4715;51.660;7.082;2023-04-23T01:31:08;28.70;;;17.57;;
5085;SDS011;4715;51.660;7.082;2023-04-23T01:33:30;33.47;;;19.77;;
5085;SDS011;4715;51.660;7.082;2023-04-23T01:35:52;29.17;;;18.63;;
5085;SDS011;4715;51.660;7.082;2023-04-23T01:38:15;26.20;;;16.57;;
5085;SDS011;4715;51.660;7.082;2023-04-23T01:40:39;21.07;;;13.90;;
5085;SDS011;4715;51.660;7.082;2023-04-23T01:43:01;29.10;;;17.50;;
5085;SDS011;4715;51.660;7.082;2023-04-23T01:45:23;23.70;;;15.50;;
5085;SDS011;4715;51.660;7.082;2023-04-23T01:47:45;21.93;;;14.57;;
5085;SDS011;4715;51.660;7.082;2023-04-23T01:50:08;25.73;;;13.87;;
5085;SDS011;4715;51.660;7.082;2023-04-23T01:52:29;18.03;;;12.00;;
5085;SDS011;4715;51.660;7.082;2023-04-23T01:54:51;14.70;;;11.43;;
5085;SDS011;4715;51.660;7.082;2023-04-23T01:57:15;17.07;;;10.90;;
5085;SDS011;4715;51.660;7.082;2023-04-23T02:02:07;16.13;;;9.90;;
5085;SDS011;4715;51.660;7.082;2023-04-23T02:04:32;11.80;;;8.90;;
5085;SDS011;4715;51.660;7.082;2023-04-23T02:06:55;11.60;;;9.17;;
5085;SDS011;4715;51.660;7.082;2023-04-23T02:09:17;12.10;;;8.80;;
5085;SDS011;4715;51.660;7.082;2023-04-23T02:11:39;10.83;;;8.90;;
5085;SDS011;4715;51.660;7.082;2023-04-23T02:14:02;12.77;;;8.60;;
5085;SDS011;4715;51.660;7.082;2023-04-23T02:16:25;11.47;;;8.47;;
5085;SDS011;4715;51.660;7.082;2023-04-23T02:18:47;10.70;;;7.70;;
5085;SDS011;4715;51.660;7.082;2023-04-23T02:21:09;8.53;;;7.10;;
5085;SDS011;4715;51.660;7.082;2023-04-23T02:23:32;9.53;;;7.43;;
5085;SDS011;4715;51.660;7.082;2023-04-23T02:25:54;12.30;;;9.73;;
5085;SDS011;4715;51.660;7.082;2023-04-23T02:28:16;10.37;;;8.33;;
5085;SDS011;4715;51.660;7.082;2023-04-23T02:30:39;9.90;;;7.80;;
5085;SDS011;4715;51.660;7.082;2023-04-23T02:33:04;12.40;;;8.50;;
5085;SDS011;4715;51.660;7.082;2023-04-23T02:35:26;11.87;;;8.43;;
5085;SDS011;4715;51.660;7.082;2023-04-23T02:37:48;11.50;;;8.00;;
5085;SDS011;4715;51.660;7.082;2023-04-23T02:40:10;13.83;;;8.03;;
5085;SDS011;4715;51.660;7.082;2023-04-23T02:42:32;10.30;;;8.43;;
5085;SDS011;4715;51.660;7.082;2023-04-23T02:44:54;10.90;;;8.10;;
5085;SDS011;4715;51.660;7.082;2023-04-23T02:47:17;9.97;;;8.03;;
5085;SDS011;4715;51.660;7.082;2023-04-23T02:49:39;10.03;;;7.87;;
5085;SDS011;4715;51.660;7.082;2023-04-23T02:52:01;10.40;;;8.70;;
5085;SDS011;4715;51.660;7.082;2023-04-23T02:54:23;9.90;;;8.40;;
5085;SDS011;4715;51.660;7.082;2023-04-23T02:56:45;13.57;;;10.13;;
5085;SDS011;4715;51.660;7.082;2023-04-23T02:59:07;12.57;;;9.03;;
5085;SDS011;4715;51.660;7.082;2023-04-23T03:01:39;14.03;;;9.20;;
5085;SDS011;4715;51.660;7.082;2023-04-23T03:04:02;11.60;;;8.33;;
5085;SDS011;4715;51.660;7.082;2023-04-23T03:06:24;15.07;;;10.40;;
5085;SDS011;4715;51.660;7.082;2023-04-23T03:08:46;12.53;;;8.17;;
5085;SDS011;4715;51.660;7.082;2023-04-23T03:11:08;11.93;;;9.50;;
5085;SDS011;4715;51.660;7.082;2023-04-23T03:13:30;13.97;;;9.40;;
5085;SDS011;4715;51.660;7.082;2023-04-23T03:15:52;11.67;;;8.50;;
5085;SDS011;4715;51.660;7.082;2023-04-23T03:18:16;15.03;;;9.80;;
5085;SDS011;4715;51.660;7.082;2023-04-23T03:20:39;12.60;;;8.20;;
5085;SDS011;4715;51.660;7.082;2023-04-23T03:23:01;13.13;;;9.97;;
5085;SDS011;4715;51.660;7.082;2023-04-23T03:25:25;13.00;;;10.00;;
5085;SDS011;4715;51.660;7.082;2023-04-23T03:27:47;13.00;;;9.90;;
5085;SDS011;4715;51.660;7.082;2023-04-23T03:30:10;10.83;;;8.90;;
5085;SDS011;4715;51.660;7.082;2023-04-23T03:32:32;13.17;;;9.67;;
5085;SDS011;4715;51.660;7.082;2023-04-23T03:34:54;12.77;;;9.77;;
5085;SDS011;4715;51.660;7.082;2023-04-23T03:37:17;14.33;;;10.80;;
5085;SDS011;4715;51.660;7.082;2023-04-23T03:39:39;12.93;;;9.77;;
5085;SDS011;4715;51.660;7.082;2023-04-23T03:42:01;15.87;;;10.00;;
5085;SDS011;4715;51.660;7.082;2023-04-23T03:44:24;13.60;;;9.50;;
5085;SDS011;4715;51.660;7.082;2023-04-23T03:46:46;11.10;;;8.80;;
5085;SDS011;4715;51.660;7.082;2023-04-23T03:49:07;15.67;;;11.10;;
5085;SDS011;4715;51.660;7.082;2023-04-23T03:51:29;12.47;;;10.40;;
5085;SDS011;4715;51.660;7.082;2023-04-23T03:53:53;14.50;;;10.97;;
5085;SDS011;4715;51.660;7.082;2023-04-23T03:56:14;13.53;;;9.40;;
5085;SDS011;4715;51.660;7.082;2023-04-23T03:58:36;13.43;;;9.90;;
5085;SDS011;4715;51.660;7.082;2023-04-23T04:00:58;13.07;;;9.70;;
5085;SDS011;4715;51.660;7.082;2023-04-23T04:03:21;13.07;;;9.50;;
5085;SDS011;4715;51.660;7.082;2023-04-23T04:05:43;12.30;;;8.80;;
5085;SDS011;4715;51.660;7.082;2023-04-23T04:08:05;12.03;;;9.13;;
5085;SDS011;4715;51.660;7.082;2023-04-23T04:10:29;14.33;;;10.97;;
5085;SDS011;4715;51.660;7.082;2023-04-23T04:12:50;10.90;;;9.27;;
5085;SDS011;4715;51.660;7.082;2023-04-23T04:15:14;10.63;;;8.53;;
5085;SDS011;4715;51.660;7.082;2023-04-23T04:17:39;12.63;;;9.00;;
5085;SDS011;4715;51.660;7.082;2023-04-23T04:20:01;8.70;;;7.63;;
5085;SDS011;4715;51.660;7.082;2023-04-23T04:22:22;9.90;;;8.30;;
5085;SDS011;4715;51.660;7.082;2023-04-23T04:24:45;12.57;;;9.13;;
5085;SDS011;4715;51.660;7.082;2023-04-23T04:27:08;10.63;;;8.60;;
5085;SDS011;4715;51.660;7.082;2023-04-23T04:29:30;16.63;;;10.90;;
5085;SDS011;4715;51.660;7.082;2023-04-23T04:31:52;13.10;;;9.40;;
5085;SDS011;4715;51.660;7.082;2023-04-23T04:34:15;13.03;;;9.70;;
5085;SDS011;4715;51.660;7.082;2023-04-23T04:36:37;12.77;;;9.90;;
5085;SDS011;4715;51.660;7.082;2023-04-23T04:38:59;11.67;;;9.80;;
5085;SDS011;4715;51.660;7.082;2023-04-23T04:41:22;14.23;;;10.60;;
5085;SDS011;4715;51.660;7.082;2023-04-23T04:43:48;11.40;;;9.27;;
5085;SDS011;4715;51.660;7.082;2023-04-23T04:46:10;10.70;;;8.73;;
5085;SDS011;4715;51.660;7.082;2023-04-23T04:48:32;9.20;;;8.23;;
5085;SDS011;4715;51.660;7.082;2023-04-23T04:50:54;9.73;;;8.23;;
5085;SDS011;4715;51.660;7.082;2023-04-23T04:53:16;11.27;;;7.67;;
5085;SDS011;4715;51.660;7.082;2023-04-23T04:55:39;9.47;;;8.47;;
5085;SDS011;4715;51.660;7.082;2023-04-23T04:58:01;9.83;;;8.10;;
5085;SDS011;4715;51.660;7.082;2023-04-23T05:00:28;7.37;;;6.67;;
5085;SDS011;4715;51.660;7.082;2023-04-23T05:02:50;10.70;;;8.00;;
5085;SDS011;4715;51.660;7.082;2023-04-23T05:05:12;8.47;;;7.63;;
5085;SDS011;4715;51.660;7.082;2023-04-23T05:07:34;10.13;;;8.37;;
5085;SDS011;4715;51.660;7.082;2023-04-23T05:09:56;9.63;;;7.87;;
5085;SDS011;4715;51.660;7.082;2023-04-23T05:12:18;7.67;;;6.87;;
5085;SDS011;4715;51.660;7.082;2023-04-23T05:14:39;9.63;;;7.23;;
5085;SDS011;4715;51.660;7.082;2023-04-23T05:17:03;13.13;;;9.20;;
5085;SDS011;4715;51.660;7.082;2023-04-23T05:19:24;12.63;;;9.67;;
5085;SDS011;4715;51.660;7.082;2023-04-23T05:21:46;10.43;;;8.07;;
5085;SDS011;4715;51.660;7.082;2023-04-23T05:24:08;11.77;;;9.20;;
5085;SDS011;4715;51.660;7.082;2023-04-23T05:26:30;8.53;;;7.63;;
5085;SDS011;4715;51.660;7.082;2023-04-23T05:28:52;10.90;;;8.60;;
5085;SDS011;4715;51.660;7.082;2023-04-23T05:31:14;8.03;;;7.10;;
5085;SDS011;4715;51.660;7.082;2023-04-23T05:33:39;10.10;;;9.10;;
5085;SDS011;4715;51.660;7.082;2023-04-23T05:36:02;11.30;;;8.73;;
5085;SDS011;4715;51.660;7.082;2023-04-23T05:38:25;13.30;;;9.00;;
5085;SDS011;4715;51.660;7.082;2023-04-23T05:40:46;12.67;;;9.80;;
5085;SDS011;4715;51.660;7.082;2023-04-23T05:43:08;11.77;;;10.00;;
5085;SDS011;4715;51.660;7.082;2023-04-23T05:45:30;12.50;;;8.83;;
5085;SDS011;4715;51.660;7.082;2023-04-23T05:47:53;20.60;;;12.40;;
5085;SDS011;4715;51.660;7.082;2023-04-23T05:50:22;12.37;;;10.23;;
5085;SDS011;4715;51.660;7.082;2023-04-23T05:52:47;11.20;;;9.70;;
5085;SDS011;4715;51.660;7.082;2023-04-23T05:55:10;13.57;;;10.87;;
5085;SDS011;4715;51.660;7.082;2023-04-23T05:57:35;13.93;;;11.47;;
5085;SDS011;4715;51.660;7.082;2023-04-23T05:59:57;14.13;;;10.50;;
5085;SDS011;4715;51.660;7.082;2023-04-23T06:02:19;11.80;;;9.90;;
5085;SDS011;4715;51.660;7.082;2023-04-23T06:04:40;14.03;;;10.90;;
5085;SDS011;4715;51.660;7.082;2023-04-23T06:07:04;12.37;;;11.10;;
5085;SDS011;4715;51.660;7.082;2023-04-23T06:09:26;15.27;;;13.27;;
5085;SDS011;4715;51.660;7.082;2023-04-23T06:11:48;13.30;;;11.27;;
5085;SDS011;4715;51.660;7.082;2023-04-23T06:14:12;14.97;;;12.40;;
5085;SDS011;4715;51.660;7.082;2023-04-23T06:16:35;11.87;;;10.60;;
5085;SDS011;4715;51.660;7.082;2023-04-23T06:18:56;12.33;;;10.10;;
5085;SDS011;4715;51.660;7.082;2023-04-23T06:21:21;9.70;;;8.70;;
5085;SDS011;4715;51.660;7.082;2023-04-23T06:23:51;16.60;;;12.90;;
5085;SDS011;4715;51.660;7.082;2023-04-23T06:26:14;14.57;;;11.00;;
5085;SDS011;4715;51.660;7.082;2023-04-23T06:28:41;14.87;;;11.00;;
5085;SDS011;4715;51.660;7.082;2023-04-23T06:31:04;15.97;;;11.40;;
5085;SDS011;4715;51.660;7.082;2023-04-23T06:33:27;10.10;;;9.10;;
5085;SDS011;4715;51.660;7.082;2023-04-23T06:35:49;15.97;;;12.27;;
5085;SDS011;4715;51.660;7.082;2023-04-23T06:38:11;12.50;;;10.80;;
5085;SDS011;4715;51.660;7.082;2023-04-23T06:40:34;18.03;;;13.47;;
5085;SDS011;4715;51.660;7.082;2023-04-23T06:42:56;16.50;;;12.50;;
5085;SDS011;4715;51.660;7.082;2023-04-23T06:45:18;19.57;;;13.40;;
5085;SDS011;4715;51.660;7.082;2023-04-23T06:47:40;14.27;;;11.70;;
5085;SDS011;4715;51.660;7.082;2023-04-23T06:50:02;14.43;;;11.30;;
5085;SDS011;4715;51.660;7.082;2023-04-23T06:52:27;14.67;;;12.10;;
5085;SDS011;4715;51.660;7.082;2023-04-23T06:54:50;14.90;;;11.10;;
5085;SDS011;4715;51.660;7.082;2023-04-23T06:57:13;12.27;;;10.20;;
5085;SDS011;4715;51.660;7.082;2023-04-23T06:59:37;12.67;;;10.47;;
5085;SDS011;4715;51.660;7.082;2023-04-23T07:02:04;11.10;;;9.90;;
5085;SDS011;4715;51.660;7.082;2023-04-23T07:04:32;12.90;;;11.57;;
5085;SDS011;4715;51.660;7.082;2023-04-23T07:06:55;12.93;;;10.30;;
5085;SDS011;4715;51.660;7.082;2023-04-23T07:09:19;13.10;;;10.30;;
5085;SDS011;4715;51.660;7.082;2023-04-23T07:11:42;12.83;;;10.83;;
5085;SDS011;4715;51.660;7.082;2023-04-23T07:14:08;9.60;;;8.50;;
5085;SDS011;4715;51.660;7.082;2023-04-23T07:16:29;13.00;;;10.00;;
5085;SDS011;4715;51.660;7.082;2023-04-23T07:18:53;9.23;;;8.33;;
5085;SDS011;4715;51.660;7.082;2023-04-23T07:21:28;10.17;;;8.80;;
5085;SDS011;4715;51.660;7.082;2023-04-23T07:23:52;11.90;;;8.67;;
5085;SDS011;4715;51.660;7.082;2023-04-23T07:26:14;10.57;;;8.77;;
5085;SDS011;4715;51.660;7.082;2023-04-23T07:28:39;10.53;;;8.10;;
5085;SDS011;4715;51.660;7.082;2023-04-23T07:31:09;11.20;;;8.63;;
5085;SDS011;4715;51.660;7.082;2023-04-23T07:33:33;9.23;;;8.33;;
5085;SDS011;4715;51.660;7.082;2023-04-23T07:35:58;8.33;;;7.53;;
5085;SDS011;4715;51.660;7.082;2023-04-23T07:38:23;8.60;;;7.60;;
5085;SDS011;4715;51.660;7.082;2023-04-23T07:40:45;11.60;;;7.90;;
5085;SDS011;4715;51.660;7.082;2023-04-23T07:43:07;10.30;;;8.53;;
5085;SDS011;4715;51.660;7.082;2023-04-23T07:45:29;8.10;;;6.87;;
5085;SDS011;4715;51.660;7.082;2023-04-23T07:47:52;8.13;;;7.40;;
5085;SDS011;4715;51.660;7.082;2023-04-23T07:50:14;8.10;;;7.43;;
5085;SDS011;4715;51.660;7.082;2023-04-23T07:52:35;9.40;;;8.13;;
5085;SDS011;4715;51.660;7.082;2023-04-23T07:54:58;9.00;;;8.20;;
5085;SDS011;4715;51.660;7.082;2023-04-23T07:57:20;8.97;;;7.93;;
5085;SDS011;4715;51.660;7.082;2023-04-23T07:59:43;7.97;;;7.20;;
5085;SDS011;4715;51.660;7.082;2023-04-23T08:02:05;8.53;;;7.50;;
5085;SDS011;4715;51.660;7.082;2023-04-23T08:04:29;8.97;;;7.50;;
5085;SDS011;4715;51.660;7.082;2023-04-23T08:06:51;6.90;;;6.03;;
5085;SDS011;4715;51.660;7.082;2023-04-23T08:09:13;9.37;;;6.33;;
5085;SDS011;4715;51.660;7.082;2023-04-23T08:11:35;9.20;;;6.50;;
5085;SDS011;4715;51.660;7.082;2023-04-23T08:13:57;8.23;;;6.60;;
5085;SDS011;4715;51.660;7.082;2023-04-23T08:16:20;12.47;;;7.97;;
5085;SDS011;4715;51.660;7.082;2023-04-23T08:18:43;6.93;;;5.70;;
5085;SDS011;4715;51.660;7.082;2023-04-23T08:21:06;8.07;;;5.97;;
5085;SDS011;4715;51.660;7.082;2023-04-23T08:23:28;6.33;;;5.13;;
5085;SDS011;4715;51.660;7.082;2023-04-23T08:25:50;7.70;;;6.20;;
5085;SDS011;4715;51.660;7.082;2023-04-23T08:28:12;5.80;;;4.73;;
5085;SDS011;4715;51.660;7.082;2023-04-23T08:30:36;6.20;;;5.70;;
5085;SDS011;4715;51.660;7.082;2023-04-23T08:33:01;5.97;;;5.03;;
5085;SDS011;4715;51.660;7.082;2023-04-23T08:35:23;5.37;;;4.70;;
5085;SDS011;4715;51.660;7.082;2023-04-23T08:37:47;4.33;;;3.90;;
5085;SDS011;4715;51.660;7.082;2023-04-23T08:40:10;10.60;;;5.37;;
5085;SDS011;4715;51.660;7.082;2023-04-23T08:42:35;5.20;;;4.30;;
5085;SDS011;4715;51.660;7.082;2023-04-23T08:45:01;5.73;;;3.77;;
5085;SDS011;4715;51.660;7.082;2023-04-23T08:47:23;4.47;;;4.13;;
5085;SDS011;4715;51.660;7.082;2023-04-23T08:49:51;4.50;;;4.10;;
5085;SDS011;4715;51.660;7.082;2023-04-23T08:55:28;5.07;;;4.53;;
5085;SDS011;4715;51.660;7.082;2023-04-23T08:57:51;4.80;;;4.30;;
5085;SDS011;4715;51.660;7.082;2023-04-23T09:00:14;4.60;;;4.20;;
5085;SDS011;4715;51.660;7.082;2023-04-23T09:02:37;5.23;;;3.63;;
5085;SDS011;4715;51.660;7.082;2023-04-23T09:05:01;5.00;;;4.60;;
5085;SDS011;4715;51.660;7.082;2023-04-23T09:07:24;6.37;;;5.00;;
5085;SDS011;4715;51.660;7.082;2023-04-23T09:09:47;6.40;;;4.30;;
5085;SDS011;4715;51.660;7.082;2023-04-23T09:12:10;4.33;;;3.93;;
5085;SDS011;4715;51.660;7.082;2023-04-23T09:14:32;4.37;;;3.93;;
5085;SDS011;4715;51.660;7.082;2023-04-23T09:16:55;4.83;;;4.40;;
5085;SDS011;4715;51.660;7.082;2023-04-23T09:19:17;7.57;;;3.70;;
5085;SDS011;4715;51.660;7.082;2023-04-23T09:21:39;3.80;;;3.50;;
5085;SDS011;4715;51.660;7.082;2023-04-23T09:24:03;3.77;;;3.47;;
5085;SDS011;4715;51.660;7.082;2023-04-23T09:26:25;4.00;;;3.70;;
5085;SDS011;4715;51.660;7.082;2023-04-23T09:28:51;3.47;;;3.27;;
5085;SDS011;4715;51.660;7.082;2023-04-23T09:31:13;4.70;;;4.23;;
5085;SDS011;4715;51.660;7.082;2023-04-23T09:33:35;3.93;;;3.63;;
5085;SDS011;4715;51.660;7.082;2023-04-23T09:35:58;3.50;;;3.20;;
5085;SDS011;4715;51.660;7.082;2023-04-23T09:38:26;6.93;;;4.80;;
5085;SDS011;4715;51.660;7.082;2023-04-23T09:40:49;6.10;;;5.10;;
5085;SDS011;4715;51.660;7.082;2023-04-23T09:43:11;4.90;;;3.60;;
5085;SDS011;4715;51.660;7.082;2023-04-23T09:45:36;4.80;;;3.40;;
5085;SDS011;4715;51.660;7.082;2023-04-23T09:48:07;15.77;;;5.40;;
5085;SDS011;4715;51.660;7.082;2023-04-23T09:50:32;4.17;;;3.47;;
5085;SDS011;4715;51.660;7.082;2023-04-23T09:52:56;3.80;;;3.43;;
5085;SDS011;4715;51.660;7.082;2023-04-23T09:55:25;4.77;;;3.83;;
5085;SDS011;4715;51.660;7.082;2023-04-23T09:57:49;8.47;;;5.90;;
5085;SDS011;4715;51.660;7.082;2023-04-23T10:00:16;9.60;;;6.27;;
5085;SDS011;4715;51.660;7.082;2023-04-23T10:02:46;6.00;;;3.73;;
5085;SDS011;4715;51.660;7.082;2023-04-23T10:05:13;3.90;;;3.10;;
5085;SDS011;4715;51.660;7.082;2023-04-23T10:07:36;6.07;;;4.20;;
5085;SDS011;4715;51.660;7.082;2023-04-23T10:09:58;8.13;;;6.47;;
5085;SDS011;4715;51.660;7.082;2023-04-23T10:12:20;14.63;;;8.50;;
5085;SDS011;4715;51.660;7.082;2023-04-23T10:14:43;8.37;;;7.10;;
5085;SDS011;4715;51.660;7.082;2023-04-23T10:17:08;12.40;;;10.00;;
5085;SDS011;4715;51.660;7.082;2023-04-23T10:19:32;11.60;;;5.87;;
5085;SDS011;4715;51.660;7.082;2023-04-23T10:21:55;15.10;;;11.33;;
5085;SDS011;4715;51.660;7.082;2023-04-23T10:24:22;11.87;;;10.07;;
5085;SDS011;4715;51.660;7.082;2023-04-23T10:26:47;11.43;;;9.20;;
5085;SDS011;4715;51.660;7.082;2023-04-23T10:29:12;9.67;;;7.57;;
5085;SDS011;4715;51.660;7.082;2023-04-23T10:31:36;9.37;;;5.90;;
5085;SDS011;4715;51.660;7.082;2023-04-23T10:33:58;8.80;;;5.70;;
5085;SDS011;4715;51.660;7.082;2023-04-23T10:36:26;9.90;;;6.77;;
5085;SDS011;4715;51.660;7.082;2023-04-23T10:38:48;5.07;;;4.43;;
5085;SDS011;4715;51.660;7.082;2023-04-23T10:41:10;5.87;;;4.40;;
5085;SDS011;4715;51.660;7.082;2023-04-23T10:46:11;10.67;;;7.90;;
5085;SDS011;4715;51.660;7.082;2023-04-23T10:48:51;9.07;;;6.27;;
5085;SDS011;4715;51.660;7.082;2023-04-23T10:51:33;6.50;;;4.40;;
5085;SDS011;4715;51.660;7.082;2023-04-23T10:53:55;3.17;;;2.90;;
5085;SDS011;4715;51.660;7.082;2023-04-23T10:56:17;2.50;;;2.33;;
5085;SDS011;4715;51.660;7.082;2023-04-23T10:58:49;3.47;;;2.80;;
5085;SDS011;4715;51.660;7.082;2023-04-23T11:01:11;2.40;;;2.30;;
5085;SDS011;4715;51.660;7.082;2023-04-23T11:03:36;6.20;;;2.63;;
5085;SDS011;4715;51.660;7.082;2023-04-23T11:06:01;2.97;;;2.40;;
5085;SDS011;4715;51.660;7.082;2023-04-23T11:08:25;6.10;;;2.60;;
5085;SDS011;4715;51.660;7.082;2023-04-23T11:10:56;4.20;;;2.63;;
5085;SDS011;4715;51.660;7.082;2023-04-23T11:13:19;2.37;;;2.10;;
5085;SDS011;4715;51.660;7.082;2023-04-23T11:15:44;2.27;;;2.13;;
5085;SDS011;4715;51.660;7.082;2023-04-23T11:18:07;2.83;;;2.30;;
5085;SDS011;4715;51.660;7.082;2023-04-23T11:20:29;3.90;;;2.73;;
5085;SDS011;4715;51.660;7.082;2023-04-23T11:22:52;4.43;;;2.50;;
5085;SDS011;4715;51.660;7.082;2023-04-23T11:25:18;3.17;;;2.93;;
5085;SDS011;4715;51.660;7.082;2023-04-23T11:27:42;2.27;;;2.07;;
5085;SDS011;4715;51.660;7.082;2023-04-23T11:30:04;2.57;;;2.47;;
5085;SDS011;4715;51.660;7.082;2023-04-23T11:32:31;2.20;;;2.10;;
5085;SDS011;4715;51.660;7.082;2023-04-23T11:34:53;2.60;;;2.50;;
5085;SDS011;4715;51.660;7.082;2023-04-23T11:37:17;4.70;;;2.23;;
5085;SDS011;4715;51.660;7.082;2023-04-23T11:39:39;2.30;;;2.20;;
5085;SDS011;4715;51.660;7.082;2023-04-23T11:42:08;2.30;;;2.20;;
5085;SDS011;4715;51.660;7.082;2023-04-23T11:44:30;2.37;;;2.27;;
5085;SDS011;4715;51.660;7.082;2023-04-23T11:46:52;3.63;;;2.37;;
5085;SDS011;4715;51.660;7.082;2023-04-23T11:49:14;4.90;;;2.17;;
5085;SDS011;4715;51.660;7.082;2023-04-23T11:51:39;2.10;;;2.00;;
5085;SDS011;4715;51.660;7.082;2023-04-23T11:54:04;2.80;;;2.10;;
5085;SDS011;4715;51.660;7.082;2023-04-23T11:56:31;2.10;;;2.00;;
5085;SDS011;4715;51.660;7.082;2023-04-23T11:59:04;1.63;;;1.53;;
5085;SDS011;4715;51.660;7.082;2023-04-23T12:01:26;1.73;;;1.57;;
5085;SDS011;4715;51.660;7.082;2023-04-23T12:03:59;3.23;;;1.40;;
5085;SDS011;4715;51.660;7.082;2023-04-23T12:06:28;1.60;;;1.50;;
5085;SDS011;4715;51.660;7.082;2023-04-23T12:08:51;1.50;;;1.40;;
5085;SDS011;4715;51.660;7.082;2023-04-23T12:11:13;2.50;;;1.40;;
5085;SDS011;4715;51.660;7.082;2023-04-23T12:13:38;1.60;;;1.50;;
5085;SDS011;4715;51.660;7.082;2023-04-23T12:16:03;1.40;;;1.30;;
5085;SDS011;4715;51.660;7.082;2023-04-23T12:18:26;1.17;;;1.17;;
5085;SDS011;4715;51.660;7.082;2023-04-23T12:20:49;1.63;;;1.53;;
5085;SDS011;4715;51.660;7.082;2023-04-23T12:23:11;1.40;;;1.30;;
5085;SDS011;4715;51.660;7.082;2023-04-23T12:25:33;3.53;;;1.57;;
5085;SDS011;4715;51.660;7.082;2023-04-23T12:27:57;2.00;;;1.70;;
5085;SDS011;4715;51.660;7.082;2023-04-23T12:30:20;1.33;;;1.23;;
5085;SDS011;4715;51.660;7.082;2023-04-23T12:32:44;1.37;;;1.27;;
5085;SDS011;4715;51.660;7.082;2023-04-23T12:35:06;2.53;;;2.03;;
5085;SDS011;4715;51.660;7.082;2023-04-23T12:40:19;2.03;;;1.73;;
5085;SDS011;4715;51.660;7.082;2023-04-23T12:42:41;1.73;;;1.40;;
5085;SDS011;4715;51.660;7.082;2023-04-23T12:45:04;4.57;;;1.63;;
5085;SDS011;4715;51.660;7.082;2023-04-23T12:47:27;2.07;;;1.83;;
5085;SDS011;4715;51.660;7.082;2023-04-23T12:49:50;1.60;;;1.50;;
5085;SDS011;4715;51.660;7.082;2023-04-23T12:52:14;2.30;;;1.90;;
5085;SDS011;4715;51.660;7.082;2023-04-23T12:54:37;5.27;;;1.53;;
5085;SDS011;4715;51.660;7.082;2023-04-23T12:57:02;1.70;;;1.27;;
5085;SDS011;4715;51.660;7.082;2023-04-23T12:59:25;2.50;;;1.40;;
5085;SDS011;4715;51.660;7.082;2023-04-23T13:01:47;2.00;;;1.53;;
5085;SDS011;4715;51.660;7.082;2023-04-23T13:04:10;2.40;;;1.37;;
5085;SDS011;4715;51.660;7.082;2023-04-23T13:06:33;1.40;;;1.30;;
5085;SDS011;4715;51.660;7.082;2023-04-23T13:08:55;1.90;;;1.80;;
5085;SDS011;4715;51.660;7.082;2023-04-23T13:11:19;2.80;;;1.43;;
5085;SDS011;4715;51.660;7.082;2023-04-23T13:13:42;2.17;;;1.40;;
5085;SDS011;4715;51.660;7.082;2023-04-23T13:16:04;1.33;;;1.23;;
5085;SDS011;4715;51.660;7.082;2023-04-23T13:18:26;1.87;;;1.40;;
5085;SDS011;4715;51.660;7.082;2023-04-23T13:20:50;2.10;;;1.30;;
5085;SDS011;4715;51.660;7.082;2023-04-23T13:23:13;1.90;;;1.57;;
5085;SDS011;4715;51.660;7.082;2023-04-23T13:25:35;4.40;;;1.50;;
5085;SDS011;4715;51.660;7.082;2023-04-23T13:27:57;2.90;;;1.60;;
5085;SDS011;4715;51.660;7.082;2023-04-23T13:30:19;1.50;;;1.10;;
5085;SDS011;4715;51.660;7.082;2023-04-23T13:32:41;1.83;;;1.10;;
5085;SDS011;4715;51.660;7.082;2023-04-23T13:35:03;2.83;;;2.00;;
5085;SDS011;4715;51.660;7.082;2023-04-23T13:37:25;3.23;;;1.40;;
5085;SDS011;4715;51.660;7.082;2023-04-23T13:39:51;1.93;;;1.40;;
5085;SDS011;4715;51.660;7.082;2023-04-23T13:42:13;2.63;;;1.40;;
5085;SDS011;4715;51.660;7.082;2023-04-23T13:44:35;1.47;;;1.30;;
5085;SDS011;4715;51.660;7.082;2023-04-23T13:46:57;2.77;;;2.20;;
5085;SDS011;4715;51.660;7.082;2023-04-23T13:49:19;6.13;;;1.43;;
5085;SDS011;4715;51.660;7.082;2023-04-23T13:51:41;2.17;;;1.10;;
5085;SDS011;4715;51.660;7.082;2023-04-23T13:54:04;2.40;;;1.27;;
5085;SDS011;4715;51.660;7.082;2023-04-23T13:56:28;3.17;;;1.63;;
5085;SDS011;4715;51.660;7.082;2023-04-23T13:58:51;1.63;;;1.43;;
5085;SDS011;4715;51.660;7.082;2023-04-23T14:01:15;2.17;;;1.27;;
5085;SDS011;4715;51.660;7.082;2023-04-23T14:03:37;2.20;;;0.90;;
5085;SDS011;4715;51.660;7.082;2023-04-23T14:05:59;1.67;;;1.27;;
5085;SDS011;4715;51.660;7.082;2023-04-23T14:08:21;1.00;;;1.00;;
5085;SDS011;4715;51.660;7.082;2023-04-23T14:10:44;3.63;;;1.60;;
5085;SDS011;4715;51.660;7.082;2023-04-23T14:13:07;3.03;;;1.20;;
5085;SDS011;4715;51.660;7.082;2023-04-23T14:15:30;2.43;;;1.30;;
5085;SDS011;4715;51.660;7.082;2023-04-23T14:17:52;2.50;;;1.43;;
5085;SDS011;4715;51.660;7.082;2023-04-23T14:20:15;1.87;;;1.77;;
5085;SDS011;4715;51.660;7.082;2023-04-23T14:22:39;1.43;;;1.30;;
5085;SDS011;4715;51.660;7.082;2023-04-23T14:25:01;5.27;;;1.53;;
5085;SDS011;4715;51.660;7.082;2023-04-23T14:27:25;2.60;;;1.43;;
5085;SDS011;4715;51.660;7.082;2023-04-23T14:29:51;1.10;;;1.10;;
5085;SDS011;4715;51.660;7.082;2023-04-23T14:32:18;1.27;;;1.10;;
5085;SDS011;4715;51.660;7.082;2023-04-23T14:34:40;1.43;;;1.33;;
5085;SDS011;4715;51.660;7.082;2023-04-23T14:37:02;1.20;;;1.00;;
5085;SDS011;4715;51.660;7.082;2023-04-23T14:39:24;1.93;;;1.30;;
5085;SDS011;4715;51.660;7.082;2023-04-23T14:41:46;2.03;;;1.40;;
5085;SDS011;4715;51.660;7.082;2023-04-23T14:44:08;2.30;;;1.17;;
5085;SDS011;4715;51.660;7.082;2023-04-23T14:46:32;1.50;;;1.40;;
5085;SDS011;4715;51.660;7.082;2023-04-23T14:48:54;1.70;;;1.37;;
5085;SDS011;4715;51.660;7.082;2023-04-23T14:51:15;1.30;;;1.20;;